Time;durP1;ratioP1;P1;durP2;ratioP2;P2;SDS_P1;SDS_P2;PMS_P1;PMS_P2;Temp;Humidity;BMP_temperature;BMP_pressure;BME280_temperature;BME280_humidity;BME280_pressure;Samples;Min_cycle;Max_cycle;Signal;HPM_P1;HPM_P2
2023/10/11 00:03:58;;;;;;;12.75;8.57;;;;;;;21.66;52.39;101032.44;41677247;28;20076;-68
2023/10/11 00:23:59;;;;;;;14.82;8.48;;;;;;;21.76;53.73;101027.38;41682718;28;20053;-68
2023/10/11 00:43:59;;;;;;;11.98;7.63;;;;;;;21.71;53.16;101025.03;41682398;28;20534;-69
2023/10/11 01:03:59;;;;;;;11.43;7.57;;;;;;;21.71;53.67;101024.22;41673762;28;20045;-69
2023/10/11 01:24:00;;;;;;;12.10;7.40;;;;;;;21.69;53.32;101021.69;41690470;28;20138;-68
2023/10/11 01:44:00;;;;;;;11.68;7.10;;;;;;;21.58;53.65;101006.63;41707451;28;20041;-68
2023/10/11 02:04:10;;;;;;;10.63;6.90;;;;;;;21.66;53.79;101024.53;41703444;28;20052;-68
2023/10/11 02:24:14;;;;;;;11.40;7.50;;;;;;;21.42;53.25;100985.72;41697314;28;20048;-68
2023/10/11 02:44:15;;;;;;;12.95;8.02;;;;;;;21.61;52.90;101031.09;41696710;28;20101;-68
2023/10/11 03:04:16;;;;;;;12.55;7.55;;;;;;;21.59;53.21;101020.63;41712022;28;20175;-68
2023/10/11 03:24:16;;;;;;;9.80;7.20;;;;;;;21.38;53.18;101013.22;41694088;28;20056;-69
2023/10/11 03:44:20;;;;;;;10.38;7.30;;;;;;;21.55;53.42;101025.22;41683094;28;20048;-67
2023/10/11 04:04:21;;;;;;;9.93;6.80;;;;;;;21.42;53.43;101017.34;41674906;28;20262;-67
2023/10/11 04:24:21;;;;;;;10.20;7.20;;;;;;;21.52;52.92;101041.28;41641526;28;20087;-72
2023/10/11 04:44:22;;;;;;;12.98;7.72;;;;;;;21.84;54.25;101037.41;41651190;28;20049;-71
2023/10/11 05:04:31;;;;;;;20.05;10.13;;;;;;;21.41;54.10;101047.28;41686648;28;20045;-71
2023/10/11 05:24:54;;;;;;;25.70;11.68;;;;;;;21.57;52.83;101065.53;41677567;28;20377;-65
2023/10/11 06:05:14;;;;;;;27.02;12.90;;;;;;;21.48;53.45;101078.47;41708348;28;20051;-67
2023/10/11 06:25:22;;;;;;;26.00;13.13;;;;;;;21.52;53.20;101093.97;41728946;28;20087;-67
2023/10/11 06:45:28;;;;;;;23.40;12.75;;;;;;;21.42;53.41;101096.38;41735614;28;23257;-68
2023/10/11 07:05:31;;;;;;;26.33;12.63;;;;;;;21.45;52.98;101100.59;41704212;28;20124;-69
2023/10/11 07:25:37;;;;;;;21.10;10.98;;;;;;;21.47;53.32;101111.03;41714084;28;20037;-70
2023/10/11 07:45:47;;;;;;;18.85;10.38;;;;;;;21.49;53.46;101123.16;41682826;28;20054;-66
2023/10/11 08:05:53;;;;;;;27.98;12.05;;;;;;;21.51;53.37;101118.63;41671005;28;20044;-64
2023/10/11 08:25:57;;;;;;;20.42;11.82;;;;;;;21.54;52.76;101112.31;41676687;28;20124;-64
2023/10/11 08:46:05;;;;;;;19.35;11.07;;;;;;;21.50;53.00;101113.47;41697176;28;20037;-63
2023/10/11 09:06:19;;;;;;;19.95;11.02;;;;;;;21.65;52.38;101111.63;41706314;28;20029;-65
2023/10/11 09:26:37;;;;;;;19.75;11.00;;;;;;;21.86;52.04;101102.25;41686923;28;20049;-62
2023/10/11 09:46:38;;;;;;;18.83;11.30;;;;;;;21.84;52.25;101090.13;41698168;28;20079;-65
2023/10/11 10:07:10;;;;;;;19.63;10.07;;;;;;;22.02;51.53;101083.56;41698012;28;20462;-63
2023/10/11 10:27:23;;;;;;;16.27;9.60;;;;;;;22.19;51.61;101068.31;41684490;28;20514;-64
2023/10/11 10:47:26;;;;;;;16.08;9.20;;;;;;;22.24;51.26;101024.03;41691298;28;20045;-63
2023/10/11 11:07:26;;;;;;;14.05;8.75;;;;;;;22.55;50.81;101014.72;41694017;28;20060;-64
2023/10/11 11:27:27;;;;;;;14.90;8.50;;;;;;;22.65;50.90;100988.50;41681657;28;20049;-64
2023/10/11 11:47:29;;;;;;;12.38;7.80;;;;;;;22.76;50.55;100940.19;41687770;28;20048;-64
2023/10/11 12:07:31;;;;;;;12.38;7.38;;;;;;;22.98;50.38;100931.44;41675602;28;20049;-63
2023/10/11 12:27:32;;;;;;;11.13;7.10;;;;;;;23.10;50.31;100932.31;41671084;28;20100;-63
2023/10/11 12:47:32;;;;;;;10.20;6.50;;;;;;;23.10;50.14;100890.06;41654848;28;20049;-64
2023/10/11 13:07:36;;;;;;;9.32;6.07;;;;;;;23.44;49.83;100873.41;41658326;28;20048;-64
2023/10/11 13:27:37;;;;;;;11.35;7.50;;;;;;;23.61;52.11;100849.09;41679956;28;20187;-63
2023/10/11 13:47:38;;;;;;;13.27;7.20;;;;;;;23.59;52.46;100829.03;41691024;28;20037;-66
2023/10/11 14:07:50;;;;;;;13.38;7.13;;;;;;;23.54;52.24;100824.09;41686288;28;20480;-63
2023/10/11 14:27:54;;;;;;;11.13;6.35;;;;;;;23.55;52.05;100809.09;41695132;28;20045;-66
2023/10/11 14:47:55;;;;;;;8.90;6.13;;;;;;;23.38;52.07;100798.06;41694931;28;20158;-66
2023/10/11 15:07:56;;;;;;;8.63;6.20;;;;;;;23.09;52.48;100801.19;41686210;28;20044;-64
2023/10/11 15:27:56;;;;;;;8.35;5.35;;;;;;;22.97;52.36;100779.25;41690330;28;20536;-65
2023/10/11 15:47:57;;;;;;;8.88;5.80;;;;;;;22.88;52.99;100787.91;41633853;28;20450;-66
2023/10/11 16:07:58;;;;;;;8.35;5.00;;;;;;;22.77;53.30;100785.25;41674284;28;20120;-65
2023/10/11 16:27:59;;;;;;;7.32;4.90;;;;;;;22.89;53.16;100797.50;41661007;28;20501;-68
2023/10/11 16:48:04;;;;;;;10.20;5.18;;;;;;;22.70;54.08;100776.97;41666524;28;20515;-74
2023/10/11 17:08:06;;;;;;;16.23;6.68;;;;;;;22.96;53.78;100827.75;41690639;28;20053;-71
2023/10/11 17:28:09;;;;;;;10.80;6.65;;;;;;;22.90;54.17;100808.91;41704796;28;20084;-73
2023/10/11 17:48:13;;;;;;;13.85;7.65;;;;;;;23.07;55.43;100813.72;41713093;28;20053;-71
2023/10/11 18:08:16;;;;;;;14.57;8.10;;;;;;;22.80;55.62;100790.28;41673248;28;20048;-71
2023/10/11 18:28:16;;;;;;;15.25;7.90;;;;;;;23.00;56.17;100834.47;41666986;28;20041;-71
2023/10/11 18:48:18;;;;;;;10.40;6.80;;;;;;;23.01;55.68;100822.13;41654626;28;20045;-70
2023/10/11 19:08:20;;;;;;;10.43;7.25;;;;;;;22.75;56.21;100814.41;41668589;28;20053;-69
2023/10/11 19:28:21;;;;;;;13.52;7.20;;;;;;;22.66;55.83;100817.78;41704372;28;20112;-69
2023/10/11 19:48:22;;;;;;;11.13;6.78;;;;;;;22.55;55.00;100800.13;41696281;28;20124;-70
2023/10/11 20:08:23;;;;;;;11.98;6.75;;;;;;;22.75;55.02;100822.31;41715044;28;20248;-70
2023/10/11 20:28:24;;;;;;;9.27;6.68;;;;;;;22.80;54.99;100819.34;41706313;28;21046;-68
2023/10/11 20:48:26;;;;;;;11.57;6.40;;;;;;;22.76;55.30;100805.53;41703100;28;20047;-67
2023/10/11 21:08:27;;;;;;;12.10;6.10;;;;;;;22.35;55.04;100754.97;41696308;28;20584;-68
2023/10/11 21:28:27;;;;;;;10.88;6.32;;;;;;;22.66;55.41;100804.56;41698039;28;20080;-69
2023/10/11 21:48:29;;;;;;;7.40;5.70;;;;;;;22.62;55.37;100789.91;41714185;28;20087;-68
2023/10/11 22:08:33;;;;;;;7.40;5.55;;;;;;;22.60;54.81;100787.41;41710411;28;20037;-69
2023/10/11 22:28:33;;;;;;;7.72;5.80;;;;;;;22.55;55.01;100781.66;41728638;28;20040;-67
2023/10/11 22:48:38;;;;;;;8.90;5.50;;;;;;;22.34;54.76;100752.44;41729982;28;20045;-68
2023/10/11 23:08:39;;;;;;;6.57;5.03;;;;;;;22.35;54.83;100749.69;41762353;28;20046;-67
2023/10/11 23:28:47;;;;;;;7.13;5.50;;;;;;;22.16;54.47;100715.94;41742954;28;20567;-69
2023/10/11 23:49:06;;;;;;;6.63;5.20;;;;;;;22.35;54.82;100738.28;41725743;28;20095;-68
